createdAt,value
2019-04-29T00:00:55.305Z,11.18
2019-04-29T00:03:26.654Z,11.14
2019-04-29T00:05:58.006Z,10.88
2019-04-29T00:08:29.445Z,10.67
2019-04-29T00:11:02.002Z,10.68
2019-04-29T00:13:33.366Z,10.72
2019-04-29T00:16:14.994Z,10.78
2019-04-29T00:19:05.269Z,10.88
2019-04-29T00:21:37.225Z,10.88
2019-04-29T00:24:08.601Z,10.89
2019-04-29T00:26:39.985Z,10.89
2019-04-29T00:29:11.334Z,10.90
2019-04-29T00:31:43.740Z,10.98
2019-04-29T00:34:14.889Z,10.97
2019-04-29T00:36:53.070Z,10.98
2019-04-29T00:39:53.799Z,11.01
2019-04-29T00:42:44.001Z,11.04
2019-04-29T00:45:16.231Z,11.04
2019-04-29T00:47:47.483Z,11.01
2019-04-29T00:50:18.983Z,10.99
2019-04-29T00:52:50.419Z,11.01
2019-04-29T00:55:24.170Z,11.01
2019-04-29T00:57:55.667Z,10.97
2019-04-29T01:00:35.019Z,10.97
2019-04-29T01:03:06.879Z,11.01
2019-04-29T01:05:38.958Z,11.04
2019-04-29T01:08:10.557Z,11.08
2019-04-29T01:10:42.112Z,11.03
2019-04-29T01:13:13.644Z,11.00
2019-04-29T01:15:45.391Z,11.00
2019-04-29T01:18:17.155Z,10.93
2019-04-29T01:20:48.866Z,10.85
2019-04-29T01:23:20.466Z,11.00
2019-04-29T01:25:55.602Z,11.01
2019-04-29T01:28:35.998Z,11.00
2019-04-29T01:31:18.105Z,10.92
2019-04-29T01:33:51.369Z,11.00
2019-04-29T01:36:30.391Z,10.96
2019-04-29T01:39:04.488Z,10.90
2019-04-29T01:41:43.992Z,10.84
2019-04-29T01:44:16.223Z,10.85
2019-04-29T01:46:47.529Z,10.93
2019-04-29T01:49:18.853Z,10.97
2019-04-29T01:51:50.263Z,11.06
2019-04-29T01:54:21.599Z,10.99
2019-04-29T01:56:53.039Z,10.88
2019-04-29T01:59:24.530Z,10.97
2019-04-29T02:01:55.873Z,11.02
2019-04-29T02:04:27.412Z,11.01
2019-04-29T02:06:58.936Z,11.02
2019-04-29T02:09:35.530Z,11.02
2019-04-29T02:12:07.143Z,10.98
2019-04-29T02:14:38.634Z,11.10
2019-04-29T02:17:10.295Z,11.02
2019-04-29T02:19:41.922Z,10.97
2019-04-29T02:22:41.693Z,11.03
2019-04-29T02:25:18.140Z,11.14
2019-04-29T02:27:49.460Z,11.00
2019-04-29T02:30:45.321Z,11.01
2019-04-29T02:33:16.907Z,11.03
2019-04-29T02:35:48.569Z,11.05
2019-04-29T02:38:33.147Z,11.07
2019-04-29T02:41:11.453Z,11.10
2019-04-29T02:43:45.807Z,10.96
2019-04-29T02:46:17.417Z,10.94
2019-04-29T02:48:48.984Z,10.80
2019-04-29T02:51:37.439Z,10.77
2019-04-29T02:54:08.807Z,10.73
2019-04-29T02:56:41.547Z,10.66
2019-04-29T02:59:13.671Z,10.49
2019-04-29T03:02:02.196Z,10.41
2019-04-29T03:04:36.900Z,10.30
2019-04-29T03:07:08.667Z,10.39
2019-04-29T03:09:45.543Z,10.50
2019-04-29T03:12:18.113Z,10.51
2019-04-29T03:14:49.551Z,10.51
2019-04-29T03:17:21.200Z,10.49
2019-04-29T03:20:11.505Z,10.53
2019-04-29T03:22:43.734Z,10.61
2019-04-29T03:25:14.098Z,10.40
2019-04-29T03:27:45.618Z,10.40
2019-04-29T03:30:17.398Z,10.38
2019-04-29T03:32:48.904Z,10.34
2019-04-29T03:35:20.530Z,10.34
2019-04-29T03:37:52.075Z,10.47
2019-04-29T03:40:23.715Z,10.47
2019-04-29T03:42:55.278Z,10.55
2019-04-29T03:45:26.975Z,10.54
2019-04-29T03:47:59.389Z,10.74
2019-04-29T03:50:31.068Z,10.74
2019-04-29T03:53:03.891Z,10.81
2019-04-29T03:55:39.691Z,10.88
2019-04-29T03:58:08.690Z,10.90
2019-04-29T04:00:44.012Z,10.89
2019-04-29T04:03:39.897Z,10.73
2019-04-29T04:06:20.655Z,10.73
2019-04-29T04:09:05.470Z,10.80
2019-04-29T04:11:29.461Z,10.93
2019-04-29T04:14:01.012Z,10.67
2019-04-29T04:16:50.590Z,10.76
2019-04-29T04:19:22.821Z,10.76
2019-04-29T04:21:54.325Z,10.67
2019-04-29T04:24:25.932Z,10.82
2019-04-29T04:26:57.506Z,10.89
2019-04-29T04:29:29.237Z,10.73
2019-04-29T04:32:00.817Z,10.68
2019-04-29T04:34:32.127Z,10.71
2019-04-29T04:37:03.467Z,10.70
2019-04-29T04:39:36.735Z,10.94
2019-04-29T04:42:08.078Z,10.94
2019-04-29T04:44:49.345Z,10.93
2019-04-29T04:47:21.341Z,11.02
2019-04-29T04:49:53.086Z,11.02
2019-04-29T04:52:24.437Z,11.13
2019-04-29T04:54:56.262Z,11.29
2019-04-29T04:57:27.560Z,11.40
2019-04-29T04:59:59.111Z,11.52
2019-04-29T05:02:30.411Z,11.54
2019-04-29T05:05:01.689Z,11.66
2019-04-29T05:07:33.597Z,11.77
2019-04-29T05:10:04.796Z,11.92
2019-04-29T05:12:36.009Z,12.04
2019-04-29T05:15:07.478Z,12.13
2019-04-29T05:17:38.611Z,12.26
2019-04-29T05:20:11.260Z,12.51
2019-04-29T05:22:59.509Z,12.74
2019-04-29T05:25:32.105Z,13.09
2019-04-29T05:28:03.542Z,13.38
2019-04-29T05:30:34.836Z,13.50
2019-04-29T05:33:06.046Z,13.78
2019-04-29T05:35:56.618Z,13.93
2019-04-29T05:38:31.679Z,13.81
2019-04-29T05:41:03.081Z,13.37
2019-04-29T05:43:40.967Z,13.36
2019-04-29T05:46:24.755Z,13.28
2019-04-29T05:48:55.916Z,13.21
2019-04-29T05:51:32.420Z,13.09
2019-04-29T05:54:04.514Z,13.17
2019-04-29T05:56:35.468Z,13.44
2019-04-29T05:59:08.532Z,13.51
2019-04-29T06:01:42.606Z,13.78
2019-04-29T06:04:16.362Z,14.13
2019-04-29T06:06:45.000Z,14.40
2019-04-29T06:09:18.416Z,14.67
2019-04-29T06:11:49.567Z,14.98
2019-04-29T06:14:22.261Z,14.52
2019-04-29T06:16:57.452Z,14.53
2019-04-29T06:19:26.706Z,14.29
2019-04-29T06:21:58.088Z,14.35
2019-04-29T06:24:29.278Z,14.51
2019-04-29T06:27:00.596Z,14.58
2019-04-29T06:29:31.582Z,14.47
2019-04-29T06:32:02.825Z,14.44
2019-04-29T06:34:35.480Z,14.34
2019-04-29T06:37:07.479Z,14.42
2019-04-29T06:39:38.618Z,14.85
2019-04-29T06:42:09.808Z,15.27
2019-04-29T06:44:44.469Z,15.63
2019-04-29T06:47:16.846Z,15.82
2019-04-29T06:49:46.587Z,16.36
2019-04-29T06:52:17.513Z,16.59
2019-04-29T06:54:48.450Z,16.82
2019-04-29T06:57:19.512Z,17.24
2019-04-29T06:59:50.511Z,17.94
2019-04-29T07:02:21.715Z,17.52
2019-04-29T07:04:52.972Z,17.15
2019-04-29T07:07:24.159Z,16.88
2019-04-29T07:09:57.260Z,16.74
2019-04-29T07:12:28.422Z,16.95
2019-04-29T07:15:00.672Z,16.79
2019-04-29T07:17:31.852Z,17.17
2019-04-29T07:20:03.379Z,17.20
2019-04-29T07:22:34.736Z,17.95
2019-04-29T07:25:06.155Z,18.30
2019-04-29T07:27:43.137Z,18.50
2019-04-29T07:30:10.944Z,18.72
2019-04-29T07:32:46.899Z,19.03
2019-04-29T07:35:15.138Z,18.90
2019-04-29T07:37:46.072Z,18.92
2019-04-29T07:40:17.553Z,18.59
2019-04-29T07:42:48.992Z,19.03
2019-04-29T07:45:43.295Z,19.29
2019-04-29T07:48:06.390Z,19.76
2019-04-29T07:50:35.521Z,20.02
2019-04-29T07:53:06.524Z,19.65
2019-04-29T07:55:37.667Z,19.40
2019-04-29T07:58:09.069Z,19.45
2019-04-29T08:00:44.624Z,19.50
2019-04-29T08:03:13.372Z,19.76
2019-04-29T08:05:44.914Z,20.10
2019-04-29T08:08:21.360Z,20.09
2019-04-29T08:10:55.935Z,19.98
2019-04-29T08:13:22.971Z,20.30
2019-04-29T08:15:54.352Z,20.65
2019-04-29T08:18:25.833Z,20.82
2019-04-29T08:20:57.297Z,20.41
2019-04-29T08:23:28.572Z,20.44
2019-04-29T08:26:02.955Z,20.33
2019-04-29T08:28:32.227Z,20.19
2019-04-29T08:31:03.157Z,20.64
2019-04-29T08:33:34.309Z,20.24
2019-04-29T08:36:05.496Z,20.33
2019-04-29T08:38:36.618Z,20.36
2019-04-29T08:41:08.812Z,20.34
2019-04-29T08:44:14.825Z,20.08
2019-04-29T08:46:38.537Z,20.58
2019-04-29T08:49:20.600Z,20.07
2019-04-29T08:51:51.705Z,20.07
2019-04-29T08:54:22.625Z,20.23
2019-04-29T08:57:03.134Z,20.21
2019-04-29T08:59:26.959Z,20.16
2019-04-29T09:01:58.156Z,20.26
2019-04-29T09:04:33.280Z,20.72
2019-04-29T09:07:12.369Z,20.67
2019-04-29T09:09:35.089Z,21.14
2019-04-29T09:12:06.381Z,21.48
2019-04-29T09:14:37.584Z,21.60
2019-04-29T09:17:19.828Z,21.67
2019-04-29T09:19:41.489Z,21.89
2019-04-29T09:22:14.499Z,21.94
2019-04-29T09:25:04.349Z,21.92
2019-04-29T09:27:36.291Z,22.20
2019-04-29T09:30:07.940Z,21.88
2019-04-29T09:32:39.980Z,22.01
2019-04-29T09:35:11.304Z,22.16
2019-04-29T09:37:42.497Z,22.13
2019-04-29T09:40:16.098Z,22.38
2019-04-29T09:43:14.773Z,22.79
2019-04-29T09:46:00.273Z,23.12
2019-04-29T09:48:31.877Z,23.21
2019-04-29T09:51:16.328Z,22.27
2019-04-29T09:53:36.110Z,22.02
2019-04-29T09:56:07.256Z,21.99
2019-04-29T09:58:38.435Z,22.09
2019-04-29T10:01:21.204Z,22.23
2019-04-29T10:04:05.597Z,22.46
2019-04-29T10:06:38.108Z,21.97
2019-04-29T10:09:11.236Z,22.22
2019-04-29T10:11:42.452Z,22.28
2019-04-29T10:14:13.917Z,22.35
2019-04-29T10:16:51.719Z,22.59
2019-04-29T10:19:40.449Z,22.51
2019-04-29T10:22:11.751Z,22.83
2019-04-29T10:24:42.856Z,23.37
2019-04-29T10:27:14.202Z,22.93
2019-04-29T10:29:50.701Z,23.07
2019-04-29T10:32:21.146Z,23.07
2019-04-29T10:34:52.292Z,22.45
2019-04-29T10:37:30.956Z,22.97
2019-04-29T10:40:21.438Z,23.07
2019-04-29T10:43:15.406Z,23.31
2019-04-29T10:46:08.156Z,23.73
2019-04-29T10:48:53.740Z,23.57
2019-04-29T10:51:27.346Z,23.28
2019-04-29T10:53:59.619Z,24.04
2019-04-29T10:56:30.770Z,24.11
2019-04-29T10:59:04.512Z,24.86
2019-04-29T11:02:49.216Z,25.28
2019-04-29T11:05:35.414Z,24.76
2019-04-29T11:08:22.549Z,24.55
2019-04-29T11:11:02.174Z,24.88
2019-04-29T11:13:27.403Z,25.07
2019-04-29T11:15:58.506Z,25.15
2019-04-29T11:18:29.585Z,24.90
2019-04-29T11:21:00.854Z,24.80
2019-04-29T11:24:05.697Z,24.35
2019-04-29T11:26:54.874Z,23.49
2019-04-29T11:29:27.367Z,23.88
2019-04-29T11:32:00.965Z,24.16
2019-04-29T11:34:41.028Z,24.28
2019-04-29T11:37:17.897Z,25.49
2019-04-29T11:39:50.329Z,25.30
2019-04-29T11:42:21.201Z,25.79
2019-04-29T11:44:52.391Z,25.06
2019-04-29T11:47:25.173Z,24.76
2019-04-29T11:50:07.542Z,24.28
2019-04-29T11:52:36.617Z,24.13
2019-04-29T11:55:08.423Z,23.75
2019-04-29T11:57:45.954Z,23.21
2019-04-29T12:00:28.026Z,23.00
2019-04-29T12:03:01.444Z,23.16
2019-04-29T12:05:40.235Z,22.91
2019-04-29T12:08:16.391Z,22.85
2019-04-29T12:10:48.399Z,22.90
2019-04-29T12:13:28.175Z,22.85
2019-04-29T12:16:11.026Z,22.95
2019-04-29T12:19:07.171Z,22.88
2019-04-29T12:21:39.251Z,23.27
2019-04-29T12:24:10.580Z,23.39
2019-04-29T12:26:44.318Z,23.25
2019-04-29T12:29:18.246Z,23.37
2019-04-29T12:32:12.179Z,22.98
2019-04-29T12:35:00.816Z,22.88
2019-04-29T12:38:00.681Z,22.69
2019-04-29T12:40:54.591Z,22.84
2019-04-29T12:43:59.359Z,22.33
2019-04-29T12:46:43.901Z,22.33
2019-04-29T12:49:14.963Z,22.12
2019-04-29T12:51:46.161Z,22.29
2019-04-29T12:54:17.268Z,22.30
2019-04-29T12:56:49.511Z,22.37
2019-04-29T12:59:20.735Z,22.44
2019-04-29T13:02:24.322Z,22.47
2019-04-29T13:05:04.851Z,22.51
2019-04-29T13:07:50.195Z,22.58
2019-04-29T13:10:42.405Z,22.67
2019-04-29T13:13:11.348Z,22.72
2019-04-29T13:16:07.445Z,22.80
2019-04-29T13:18:53.950Z,22.62
2019-04-29T13:21:25.951Z,22.74
2019-04-29T13:24:12.822Z,23.03
2019-04-29T13:26:33.339Z,23.06
2019-04-29T13:29:02.879Z,22.81
2019-04-29T13:31:38.386Z,22.20
2019-04-29T13:34:22.967Z,22.13
2019-04-29T13:36:41.472Z,22.22
2019-04-29T13:39:12.847Z,22.05
2019-04-29T13:41:57.076Z,22.01
2019-04-29T13:44:19.658Z,22.26
2019-04-29T13:47:14.979Z,22.31
2019-04-29T13:49:52.538Z,22.09
2019-04-29T13:52:23.650Z,22.00
2019-04-29T13:54:54.757Z,22.13
2019-04-29T13:57:25.841Z,22.11
2019-04-29T14:00:26.356Z,22.10
2019-04-29T14:03:11.758Z,22.15
2019-04-29T14:05:41.758Z,22.21
2019-04-29T14:08:12.975Z,22.34
2019-04-29T14:10:46.820Z,22.46
2019-04-29T14:13:20.652Z,22.55
2019-04-29T14:15:49.432Z,22.62
2019-04-29T14:18:20.407Z,22.53
2019-04-29T14:20:53.175Z,22.35
2019-04-29T14:23:24.181Z,22.19
2019-04-29T14:25:55.339Z,21.96
2019-04-29T14:28:26.615Z,21.95
2019-04-29T14:30:58.028Z,21.79
2019-04-29T14:33:34.352Z,21.78
2019-04-29T14:36:08.532Z,21.88
2019-04-29T14:38:40.743Z,21.90
2019-04-29T14:41:14.093Z,21.76
2019-04-29T14:44:04.969Z,21.78
2019-04-29T14:46:57.833Z,21.88
2019-04-29T14:49:35.451Z,21.90
2019-04-29T14:52:08.209Z,22.08
2019-04-29T14:54:41.822Z,22.21
2019-04-29T14:57:12.147Z,22.30
2019-04-29T14:59:43.609Z,22.34
2019-04-29T15:02:19.250Z,22.48
2019-04-29T15:04:50.936Z,22.38
2019-04-29T15:07:22.291Z,22.53
2019-04-29T15:09:58.196Z,22.59
2019-04-29T15:13:19.770Z,22.51
2019-04-29T15:16:03.713Z,22.43
2019-04-29T15:18:47.468Z,22.31
2019-04-29T15:21:43.808Z,22.47
2019-04-29T15:24:15.839Z,22.22
2019-04-29T15:26:46.680Z,22.27
2019-04-29T15:29:18.280Z,22.34
2019-04-29T15:31:49.394Z,22.39
2019-04-29T15:34:20.403Z,22.60
2019-04-29T15:36:51.586Z,22.45
2019-04-29T15:39:25.243Z,22.18
2019-04-29T15:41:55.672Z,21.93
2019-04-29T15:44:27.067Z,21.86
2019-04-29T15:46:58.213Z,21.82
2019-04-29T15:49:29.583Z,21.65
2019-04-29T15:52:00.788Z,21.59
2019-04-29T15:54:31.895Z,21.77
2019-04-29T15:57:08.030Z,21.73
2019-04-29T15:59:48.587Z,21.83
2019-04-29T16:02:09.506Z,21.83
2019-04-29T16:04:47.317Z,21.79
2019-04-29T16:07:46.752Z,21.74
2019-04-29T16:10:35.135Z,21.70
2019-04-29T16:13:08.266Z,21.69
2019-04-29T16:15:39.297Z,21.78
2019-04-29T16:18:14.742Z,21.78
2019-04-29T16:20:43.435Z,21.69
2019-04-29T16:23:14.882Z,21.44
2019-04-29T16:25:52.001Z,21.39
2019-04-29T16:28:24.465Z,21.18
2019-04-29T16:30:52.353Z,21.18
2019-04-29T16:33:23.420Z,21.20
2019-04-29T16:35:57.588Z,21.17
2019-04-29T16:38:27.267Z,21.04
2019-04-29T16:41:19.559Z,21.18
2019-04-29T16:43:49.432Z,21.14
2019-04-29T16:46:35.351Z,21.05
2019-04-29T16:48:59.793Z,20.87
2019-04-29T16:51:31.191Z,20.92
2019-04-29T16:54:02.490Z,20.87
2019-04-29T16:56:34.047Z,20.87
2019-04-29T16:59:09.343Z,20.93
2019-04-29T17:01:38.421Z,20.85
2019-04-29T17:04:09.634Z,20.74
2019-04-29T17:06:42.052Z,20.73
2019-04-29T17:09:34.935Z,20.64
2019-04-29T17:12:06.566Z,20.62
2019-04-29T17:15:02.417Z,20.47
2019-04-29T17:17:15.686Z,20.35
2019-04-29T17:19:47.007Z,20.47
2019-04-29T17:22:25.637Z,20.50
2019-04-29T17:24:50.753Z,20.33
2019-04-29T17:27:42.337Z,20.28
2019-04-29T17:30:51.686Z,20.17
2019-04-29T17:33:49.032Z,20.20
2019-04-29T17:36:13.474Z,20.21
2019-04-29T17:38:44.793Z,20.25
2019-04-29T17:41:16.175Z,20.28
2019-04-29T17:44:05.370Z,20.30
2019-04-29T17:46:58.301Z,20.28
2019-04-29T17:49:47.296Z,20.21
2019-04-29T17:52:21.782Z,20.23
2019-04-29T17:54:55.665Z,20.19
2019-04-29T17:57:40.684Z,20.17
2019-04-29T18:00:42.223Z,20.11
2019-04-29T18:03:25.978Z,20.14
2019-04-29T18:06:17.288Z,19.99
2019-04-29T18:09:09.674Z,19.84
2019-04-29T18:11:50.591Z,19.83
2019-04-29T18:14:15.052Z,19.79
2019-04-29T18:16:47.816Z,19.72
2019-04-29T18:19:24.995Z,19.43
2019-04-29T18:22:16.021Z,19.40
2019-04-29T18:25:07.280Z,19.28
2019-04-29T18:27:38.291Z,19.18
2019-04-29T18:30:12.281Z,18.98
2019-04-29T18:32:46.614Z,18.93
2019-04-29T18:35:17.040Z,18.78
2019-04-29T18:37:49.389Z,18.80
2019-04-29T18:40:20.846Z,18.76
2019-04-29T18:42:52.302Z,18.67
2019-04-29T18:45:25.522Z,18.61
2019-04-29T18:47:56.611Z,18.59
2019-04-29T18:50:29.704Z,18.63
2019-04-29T18:53:00.833Z,18.54
2019-04-29T18:55:32.210Z,18.47
2019-04-29T18:58:03.379Z,18.38
2019-04-29T19:00:34.871Z,18.38
2019-04-29T19:03:06.666Z,18.26
2019-04-29T19:05:47.259Z,18.25
2019-04-29T19:08:22.850Z,18.22
2019-04-29T19:10:52.357Z,18.13
2019-04-29T19:13:26.053Z,18.11
2019-04-29T19:16:08.997Z,18.04
2019-04-29T19:18:30.517Z,17.90
2019-04-29T19:21:01.642Z,17.96
2019-04-29T19:23:32.651Z,17.90
2019-04-29T19:26:03.792Z,17.52
2019-04-29T19:28:36.985Z,17.52
2019-04-29T19:31:09.828Z,17.20
2019-04-29T19:33:40.803Z,16.71
2019-04-29T19:36:17.138Z,16.48
2019-04-29T19:38:47.245Z,16.36
2019-04-29T19:41:18.525Z,16.31
2019-04-29T19:43:55.045Z,16.28
2019-04-29T19:46:25.325Z,16.27
2019-04-29T19:48:58.293Z,16.22
2019-04-29T19:51:28.851Z,16.25
2019-04-29T19:54:00.181Z,16.17
2019-04-29T19:56:31.135Z,16.13
2019-04-29T19:59:10.263Z,16.12
2019-04-29T20:01:37.952Z,16.05
2019-04-29T20:04:26.223Z,15.85
2019-04-29T20:07:05.541Z,15.85
2019-04-29T20:09:31.431Z,15.84
2019-04-29T20:12:11.344Z,15.96
2019-04-29T20:14:38.564Z,16.03
2019-04-29T20:17:33.106Z,16.08
2019-04-29T20:20:35.105Z,16.10
2019-04-29T20:23:06.071Z,15.97
2019-04-29T20:25:38.543Z,15.93
2019-04-29T20:28:17.205Z,15.96
2019-04-29T20:30:43.325Z,15.99
2019-04-29T20:33:16.073Z,16.06
2019-04-29T20:35:49.331Z,16.02
2019-04-29T20:38:21.007Z,16.12
2019-04-29T20:40:52.364Z,16.12
2019-04-29T20:43:26.136Z,16.23
2019-04-29T20:45:58.099Z,16.26
2019-04-29T20:48:31.397Z,16.23
2019-04-29T20:51:11.674Z,16.23
2019-04-29T20:54:00.239Z,16.41
2019-04-29T20:56:35.189Z,16.41
2019-04-29T20:59:08.990Z,16.38
2019-04-29T21:01:43.087Z,16.38
2019-04-29T21:04:13.114Z,16.30
2019-04-29T21:06:59.201Z,16.24
2019-04-29T21:09:16.953Z,16.17
2019-04-29T21:12:20.383Z,16.18
2019-04-29T21:14:52.704Z,16.25
2019-04-29T21:17:30.704Z,16.25
2019-04-29T21:19:56.735Z,16.24
2019-04-29T21:22:27.864Z,16.24
2019-04-29T21:24:59.018Z,16.18
2019-04-29T21:27:30.277Z,16.18
2019-04-29T21:30:01.236Z,16.24
2019-04-29T21:32:37.063Z,16.28
2019-04-29T21:35:28.857Z,16.29
2019-04-29T21:38:28.495Z,16.41
2019-04-29T21:41:04.300Z,16.52
2019-04-29T21:43:37.446Z,16.59
2019-04-29T21:46:08.511Z,16.68
2019-04-29T21:48:39.718Z,16.62
2019-04-29T21:51:12.447Z,16.60
2019-04-29T21:53:45.801Z,16.52
2019-04-29T21:56:17.003Z,16.53
2019-04-29T21:58:48.483Z,16.53
2019-04-29T22:01:20.240Z,16.50
2019-04-29T22:03:51.402Z,16.45
2019-04-29T22:06:24.834Z,16.44
2019-04-29T22:09:01.119Z,16.55
2019-04-29T22:11:27.913Z,16.50
2019-04-29T22:13:59.308Z,16.42
2019-04-29T22:16:30.558Z,16.44
2019-04-29T22:19:01.763Z,16.45
2019-04-29T22:21:32.802Z,16.46
2019-04-29T22:24:06.178Z,16.41
2019-04-29T22:26:36.967Z,16.43
2019-04-29T22:29:08.307Z,16.33
2019-04-29T22:31:39.588Z,16.33
2019-04-29T22:34:15.135Z,16.27
2019-04-29T22:36:45.438Z,16.26
2019-04-29T22:39:16.944Z,16.30
2019-04-29T22:42:12.524Z,16.23
2019-04-29T22:44:45.641Z,16.14
2019-04-29T22:47:23.382Z,16.09
2019-04-29T22:49:51.426Z,16.03
2019-04-29T22:52:25.402Z,15.72
2019-04-29T22:54:57.949Z,15.72
2019-04-29T22:57:31.686Z,15.85
2019-04-29T23:00:01.442Z,15.85
2019-04-29T23:02:34.418Z,15.82
2019-04-29T23:05:06.412Z,15.73
2019-04-29T23:07:37.880Z,15.72
2019-04-29T23:10:09.723Z,15.71
2019-04-29T23:12:42.076Z,15.73
2019-04-29T23:15:15.065Z,15.73
2019-04-29T23:17:50.674Z,15.68
2019-04-29T23:20:38.651Z,15.68
2019-04-29T23:23:15.625Z,15.53
2019-04-29T23:25:51.807Z,15.53
2019-04-29T23:28:26.908Z,15.55
2019-04-29T23:30:56.172Z,15.51
2019-04-29T23:33:27.586Z,15.58
2019-04-29T23:35:58.857Z,15.54
2019-04-29T23:38:30.497Z,15.54
2019-04-29T23:41:01.833Z,15.55
2019-04-29T23:43:33.125Z,15.55
2019-04-29T23:46:04.958Z,15.66
2019-04-29T23:48:39.525Z,15.64
2019-04-29T23:51:09.658Z,15.71
2019-04-29T23:53:41.159Z,15.63
2019-04-29T23:56:12.495Z,15.72
2019-04-29T23:58:49.788Z,15.63
